EUS15UV EGPH-LIPZ
Flight info
| Callsign | EUS15UV |
|---|---|
| Flight time | N/A |
| Altitude | 25000 |
| Route | TLA Y96 OTBUN/N0454F370 DCT ERKIT N110 DOLAS DCT NAVPI DCT UMUPU DCT TUSUK DCT UTABA M738 NATAG/N0449F290 M738 ADOSA/N0381F190 L612 ALBET |
| Aircraft | B738/M-SDE2E3FGHIRWXY/LB1 |
Departure
| Time | 2026-05-04 10:08 |
|---|---|
| Airport | Edinburgh Airport (EGPH) |
Arrival
| Time | N/A |
|---|---|
| Airport | Venice Marco Polo Airport (LIPZ) |
| Time | Latitude | Longitude | Altitude | Speed | Heading |
|---|---|---|---|---|---|
| 2026-05-04 09:41 | 55.94751 | -3.36626 | 115 ft | 0 kts | 89° |
| 2026-05-04 09:58 | 55.94751 | -3.36632 | 114 ft | 3 kts | 89° |
| 2026-05-04 09:58 | 55.94751 | -3.36673 | 113 ft | 2 kts | 89° |
| 2026-05-04 09:58 | 55.94746 | -3.36714 | 111 ft | 4 kts | 46° |
| 2026-05-04 10:00 | 55.94712 | -3.36737 | 115 ft | 0 kts | 359° |
| 2026-05-04 10:02 | 55.94724 | -3.36737 | 112 ft | 5 kts | 359° |
| 2026-05-04 10:04 | 55.95068 | -3.36479 | 114 ft | 13 kts | 59° |
| 2026-05-04 10:04 | 55.95116 | -3.36338 | 113 ft | 14 kts | 59° |
| 2026-05-04 10:04 | 55.95166 | -3.36187 | 113 ft | 14 kts | 59° |
| 2026-05-04 10:04 | 55.95216 | -3.36038 | 115 ft | 14 kts | 59° |
| 2026-05-04 10:05 | 55.95265 | -3.35895 | 111 ft | 13 kts | 58° |
| 2026-05-04 10:05 | 55.95311 | -3.35759 | 113 ft | 13 kts | 58° |
| 2026-05-04 10:05 | 55.95357 | -3.35624 | 115 ft | 13 kts | 59° |
| 2026-05-04 10:05 | 55.95404 | -3.35483 | 115 ft | 11 kts | 59° |
| 2026-05-04 10:06 | 55.95448 | -3.35405 | 114 ft | 10 kts | 10° |
| 2026-05-04 10:06 | 55.95515 | -3.35457 | 113 ft | 12 kts | 328° |
| 2026-05-04 10:06 | 55.95568 | -3.35550 | 112 ft | 10 kts | 276° |
| 2026-05-04 10:08 | 55.93568 | -3.41418 | 1757 ft | 156 kts | 242° |
| 2026-05-04 10:08 | 55.93015 | -3.43086 | 2421 ft | 164 kts | 242° |
| 2026-05-04 10:08 | 55.92362 | -3.44973 | 2702 ft | 193 kts | 241° |
| 2026-05-04 10:08 | 55.91607 | -3.47133 | 2891 ft | 217 kts | 239° |
| 2026-05-04 10:09 | 55.90787 | -3.49476 | 3415 ft | 226 kts | 240° |
| 2026-05-04 10:09 | 55.89949 | -3.51958 | 3798 ft | 244 kts | 242° |
| 2026-05-04 10:09 | 55.89074 | -3.54652 | 4439 ft | 253 kts | 242° |
| 2026-05-04 10:09 | 55.88160 | -3.57338 | 5302 ft | 256 kts | 234° |
| 2026-05-04 10:10 | 55.86754 | -3.59295 | 5803 ft | 264 kts | 204° |
| 2026-05-04 10:10 | 55.84916 | -3.59806 | 6004 ft | 277 kts | 178° |
| 2026-05-04 10:10 | 55.83096 | -3.58672 | 6025 ft | 283 kts | 147° |
| 2026-05-04 10:10 | 55.81796 | -3.56045 | 6045 ft | 287 kts | 121° |
| 2026-05-04 10:11 | 55.80838 | -3.52915 | 6027 ft | 289 kts | 119° |
| 2026-05-04 10:11 | 55.79689 | -3.50033 | 6004 ft | 286 kts | 144° |
| 2026-05-04 10:11 | 55.77912 | -3.48706 | 6027 ft | 276 kts | 179° |
| 2026-05-04 10:11 | 55.76002 | -3.48596 | 6032 ft | 276 kts | 179° |
| 2026-05-04 10:12 | 55.74092 | -3.48077 | 6030 ft | 278 kts | 171° |
| 2026-05-04 10:12 | 55.72210 | -3.47254 | 6016 ft | 279 kts | 167° |
| 2026-05-04 10:12 | 55.70339 | -3.46314 | 6041 ft | 279 kts | 166° |
| 2026-05-04 10:12 | 55.68477 | -3.45330 | 6030 ft | 279 kts | 165° |
| 2026-05-04 10:13 | 55.66620 | -3.44328 | 6027 ft | 280 kts | 165° |
| 2026-05-04 10:13 | 55.64759 | -3.43317 | 6031 ft | 279 kts | 165° |
| 2026-05-04 10:13 | 55.62899 | -3.42306 | 6060 ft | 282 kts | 166° |
| 2026-05-04 10:13 | 55.61011 | -3.41282 | 6566 ft | 286 kts | 166° |
| 2026-05-04 10:14 | 55.59138 | -3.40266 | 7427 ft | 285 kts | 166° |
| 2026-05-04 10:14 | 55.57240 | -3.39238 | 8278 ft | 286 kts | 165° |
| 2026-05-04 10:16 | 55.48259 | -3.20359 | 11602 ft | 376 kts | 98° |
| 2026-05-04 10:16 | 55.47828 | -3.15802 | 12390 ft | 377 kts | 99° |
| 2026-05-04 10:16 | 55.47365 | -3.11254 | 13153 ft | 380 kts | 100° |
| 2026-05-04 10:16 | 55.46872 | -3.06633 | 13786 ft | 386 kts | 100° |
| 2026-05-04 10:17 | 55.46345 | -3.01965 | 14437 ft | 390 kts | 103° |
| 2026-05-04 10:17 | 55.45466 | -2.97431 | 15129 ft | 393 kts | 115° |
| 2026-05-04 10:19 | 55.35753 | -2.67183 | 19609 ft | 418 kts | 119° |
| 2026-05-04 10:19 | 55.34321 | -2.62727 | 20189 ft | 421 kts | 119° |
| 2026-05-04 10:19 | 55.32876 | -2.58239 | 20744 ft | 424 kts | 118° |
| 2026-05-04 10:19 | 55.31417 | -2.53712 | 21295 ft | 427 kts | 118° |
| 2026-05-04 10:20 | 55.29945 | -2.49160 | 21825 ft | 430 kts | 118° |
| 2026-05-04 10:20 | 55.28306 | -2.44742 | 22342 ft | 435 kts | 127° |
| 2026-05-04 10:20 | 55.26255 | -2.40825 | 22855 ft | 439 kts | 137° |
| 2026-05-04 10:20 | 55.23864 | -2.37471 | 23351 ft | 442 kts | 142° |
| 2026-05-04 10:21 | 55.21402 | -2.34250 | 23918 ft | 442 kts | 142° |
| 2026-05-04 10:21 | 55.18922 | -2.31042 | 24337 ft | 445 kts | 142° |
| 2026-05-04 10:21 | 55.16426 | -2.27809 | 24700 ft | 449 kts | 142° |
| 2026-05-04 10:21 | 55.13912 | -2.24535 | 25067 ft | 452 kts | 142° |
| 2026-05-04 10:22 | 55.08859 | -2.17913 | 25865 ft | 457 kts | 142° |
| 2026-05-04 10:22 | 55.06319 | -2.14573 | 26261 ft | 459 kts | 141° |
| 2026-05-04 10:22 | 55.03759 | -2.11208 | 26622 ft | 462 kts | 141° |
| 2026-05-04 10:23 | 55.01187 | -2.07832 | 26983 ft | 464 kts | 141° |
| 2026-05-04 10:23 | 54.98598 | -2.04438 | 27330 ft | 467 kts | 141° |
| 2026-05-04 10:25 | 54.80163 | -1.80449 | 29814 ft | 479 kts | 141° |
| 2026-05-04 10:25 | 54.77538 | -1.77058 | 30274 ft | 477 kts | 140° |
| 2026-05-04 10:25 | 54.74887 | -1.73640 | 30695 ft | 475 kts | 140° |
| 2026-05-04 10:25 | 54.72246 | -1.70240 | 31221 ft | 469 kts | 140° |
| 2026-05-04 10:26 | 54.69648 | -1.66903 | 31848 ft | 463 kts | 140° |
| 2026-05-04 10:26 | 54.67068 | -1.63592 | 32221 ft | 462 kts | 140° |
| 2026-05-04 10:26 | 54.64478 | -1.60269 | 32477 ft | 464 kts | 140° |
| 2026-05-04 10:26 | 54.61893 | -1.56959 | 32812 ft | 463 kts | 140° |
| 2026-05-04 10:27 | 54.59312 | -1.53660 | 33209 ft | 461 kts | 140° |
| 2026-05-04 10:27 | 54.56737 | -1.50376 | 33620 ft | 459 kts | 140° |
| 2026-05-04 10:27 | 54.54174 | -1.47112 | 33962 ft | 458 kts | 140° |
| 2026-05-04 10:27 | 54.51611 | -1.43852 | 34248 ft | 458 kts | 140° |
| 2026-05-04 10:28 | 54.49048 | -1.40598 | 34494 ft | 458 kts | 140° |
| 2026-05-04 10:28 | 54.46501 | -1.37371 | 34929 ft | 453 kts | 140° |
| 2026-05-04 10:28 | 54.43965 | -1.34163 | 35278 ft | 451 kts | 141° |
| 2026-05-04 10:28 | 54.41427 | -1.30956 | 35424 ft | 454 kts | 141° |
| 2026-05-04 10:29 | 54.38876 | -1.27735 | 35561 ft | 456 kts | 141° |
| 2026-05-04 10:29 | 54.36316 | -1.24510 | 35800 ft | 456 kts | 141° |
| 2026-05-04 10:29 | 54.33758 | -1.21292 | 36075 ft | 455 kts | 142° |
| 2026-05-04 10:29 | 54.31202 | -1.18083 | 36312 ft | 456 kts | 142° |
| 2026-05-04 10:30 | 54.28647 | -1.14880 | 36500 ft | 456 kts | 142° |
| 2026-05-04 10:30 | 54.26079 | -1.11666 | 36713 ft | 457 kts | 142° |
| 2026-05-04 10:30 | 54.23517 | -1.08464 | 36941 ft | 456 kts | 143° |
| 2026-05-04 10:30 | 54.20951 | -1.05262 | 37087 ft | 458 kts | 143° |
| 2026-05-04 10:31 | 54.18361 | -1.02034 | 37076 ft | 462 kts | 143° |
| 2026-05-04 10:32 | 54.01162 | -0.80770 | 37070 ft | 456 kts | 144° |
| 2026-05-04 10:33 | 53.95951 | -0.74662 | 37080 ft | 454 kts | 145° |
| 2026-05-04 10:33 | 53.90734 | -0.68605 | 37067 ft | 454 kts | 145° |
| 2026-05-04 10:34 | 53.85525 | -0.62539 | 37077 ft | 455 kts | 145° |
| 2026-05-04 10:34 | 53.80309 | -0.56466 | 37083 ft | 456 kts | 145° |
| 2026-05-04 10:35 | 53.75073 | -0.50387 | 37087 ft | 457 kts | 145° |
| 2026-05-04 10:35 | 53.69819 | -0.44309 | 37069 ft | 458 kts | 145° |
| 2026-05-04 10:36 | 53.64761 | -0.38478 | 37080 ft | 458 kts | 145° |
| 2026-05-04 10:36 | 53.59583 | -0.32499 | 37075 ft | 458 kts | 142° |
| 2026-05-04 10:37 | 53.55250 | -0.25266 | 37079 ft | 456 kts | 126° |
| 2026-05-04 10:37 | 53.51502 | -0.16753 | 37073 ft | 456 kts | 126° |
| 2026-05-04 10:39 | 53.38341 | 0.12572 | 37057 ft | 455 kts | 127° |